sensor_id;sensor_type;location;lat;lon;timestamp;P1;durP1;ratioP1;P2;durP2;ratioP2
77055;SDS011;67471;44.918;8.614;2023-05-07T00:00:19;3.22;;;2.13;;
77055;SDS011;67471;44.918;8.614;2023-05-07T00:03:22;4.20;;;2.50;;
77055;SDS011;67471;44.918;8.614;2023-05-07T00:06:26;3.75;;;2.25;;
77055;SDS011;67471;44.918;8.614;2023-05-07T00:09:32;5.28;;;2.30;;
77055;SDS011;67471;44.918;8.614;2023-05-07T00:12:35;4.80;;;2.70;;
77055;SDS011;67471;44.918;8.614;2023-05-07T00:15:39;4.63;;;2.47;;
77055;SDS011;67471;44.918;8.614;2023-05-07T00:18:43;5.53;;;2.60;;
77055;SDS011;67471;44.918;8.614;2023-05-07T00:21:47;5.20;;;2.80;;
77055;SDS011;67471;44.918;8.614;2023-05-07T00:24:51;4.18;;;2.50;;
77055;SDS011;67471;44.918;8.614;2023-05-07T00:27:54;4.28;;;2.72;;
77055;SDS011;67471;44.918;8.614;2023-05-07T00:30:58;5.28;;;2.90;;
77055;SDS011;67471;44.918;8.614;2023-05-07T00:34:02;4.75;;;2.80;;
77055;SDS011;67471;44.918;8.614;2023-05-07T00:37:06;6.88;;;2.75;;
77055;SDS011;67471;44.918;8.614;2023-05-07T00:40:10;3.88;;;2.72;;
77055;SDS011;67471;44.918;8.614;2023-05-07T00:43:14;4.75;;;3.00;;
77055;SDS011;67471;44.918;8.614;2023-05-07T00:46:19;6.70;;;2.75;;
77055;SDS011;67471;44.918;8.614;2023-05-07T00:49:25;4.47;;;2.50;;
77055;SDS011;67471;44.918;8.614;2023-05-07T00:52:42;4.32;;;2.35;;
77055;SDS011;67471;44.918;8.614;2023-05-07T00:55:45;6.82;;;3.35;;
77055;SDS011;67471;44.918;8.614;2023-05-07T00:58:49;4.50;;;2.83;;
77055;SDS011;67471;44.918;8.614;2023-05-07T01:01:53;3.63;;;2.25;;
77055;SDS011;67471;44.918;8.614;2023-05-07T01:04:56;4.32;;;2.20;;
77055;SDS011;67471;44.918;8.614;2023-05-07T01:08:00;3.90;;;2.40;;
77055;SDS011;67471;44.918;8.614;2023-05-07T01:11:06;3.92;;;2.38;;
77055;SDS011;67471;44.918;8.614;2023-05-07T01:14:10;3.95;;;2.47;;
77055;SDS011;67471;44.918;8.614;2023-05-07T01:17:15;5.60;;;3.20;;
77055;SDS011;67471;44.918;8.614;2023-05-07T01:20:19;3.45;;;2.47;;
77055;SDS011;67471;44.918;8.614;2023-05-07T01:23:24;5.20;;;2.70;;
77055;SDS011;67471;44.918;8.614;2023-05-07T01:26:31;4.82;;;3.03;;
77055;SDS011;67471;44.918;8.614;2023-05-07T01:29:35;5.95;;;2.33;;
77055;SDS011;67471;44.918;8.614;2023-05-07T01:32:44;3.80;;;2.55;;
77055;SDS011;67471;44.918;8.614;2023-05-07T01:36:15;4.80;;;2.50;;
77055;SDS011;67471;44.918;8.614;2023-05-07T01:39:24;4.50;;;2.38;;
77055;SDS011;67471;44.918;8.614;2023-05-07T01:42:30;3.92;;;2.45;;
77055;SDS011;67471;44.918;8.614;2023-05-07T01:45:35;3.67;;;2.28;;
77055;SDS011;67471;44.918;8.614;2023-05-07T01:48:39;5.25;;;2.30;;
77055;SDS011;67471;44.918;8.614;2023-05-07T01:51:43;4.68;;;3.05;;
77055;SDS011;67471;44.918;8.614;2023-05-07T01:54:47;5.07;;;3.00;;
77055;SDS011;67471;44.918;8.614;2023-05-07T01:57:51;4.78;;;2.67;;
77055;SDS011;67471;44.918;8.614;2023-05-07T02:00:54;6.57;;;2.78;;
77055;SDS011;67471;44.918;8.614;2023-05-07T02:03:58;4.55;;;2.85;;
77055;SDS011;67471;44.918;8.614;2023-05-07T02:07:04;3.55;;;2.58;;
77055;SDS011;67471;44.918;8.614;2023-05-07T02:10:08;3.13;;;2.05;;
77055;SDS011;67471;44.918;8.614;2023-05-07T02:13:13;4.85;;;2.72;;
77055;SDS011;67471;44.918;8.614;2023-05-07T02:16:16;3.50;;;2.13;;
77055;SDS011;67471;44.918;8.614;2023-05-07T02:19:20;4.93;;;2.20;;
77055;SDS011;67471;44.918;8.614;2023-05-07T02:22:25;4.82;;;2.00;;
77055;SDS011;67471;44.918;8.614;2023-05-07T02:25:28;3.65;;;2.88;;
77055;SDS011;67471;44.918;8.614;2023-05-07T02:28:33;5.90;;;3.35;;
77055;SDS011;67471;44.918;8.614;2023-05-07T02:31:40;5.75;;;3.25;;
77055;SDS011;67471;44.918;8.614;2023-05-07T02:34:44;4.53;;;3.10;;
77055;SDS011;67471;44.918;8.614;2023-05-07T02:37:48;5.63;;;3.17;;
77055;SDS011;67471;44.918;8.614;2023-05-07T02:40:52;3.90;;;3.10;;
77055;SDS011;67471;44.918;8.614;2023-05-07T02:43:56;5.80;;;3.40;;
77055;SDS011;67471;44.918;8.614;2023-05-07T02:46:59;4.93;;;3.63;;
77055;SDS011;67471;44.918;8.614;2023-05-07T02:50:03;8.13;;;4.47;;
77055;SDS011;67471;44.918;8.614;2023-05-07T02:53:08;5.63;;;3.15;;
77055;SDS011;67471;44.918;8.614;2023-05-07T02:56:12;5.05;;;3.35;;
77055;SDS011;67471;44.918;8.614;2023-05-07T02:59:15;4.75;;;3.42;;
77055;SDS011;67471;44.918;8.614;2023-05-07T03:02:20;5.63;;;3.28;;
77055;SDS011;67471;44.918;8.614;2023-05-07T03:05:24;5.82;;;3.22;;
77055;SDS011;67471;44.918;8.614;2023-05-07T03:08:27;5.18;;;3.40;;
77055;SDS011;67471;44.918;8.614;2023-05-07T03:11:31;4.78;;;3.28;;
77055;SDS011;67471;44.918;8.614;2023-05-07T03:14:35;9.25;;;5.30;;
77055;SDS011;67471;44.918;8.614;2023-05-07T03:17:38;5.38;;;3.88;;
77055;SDS011;67471;44.918;8.614;2023-05-07T03:20:42;5.45;;;3.13;;
77055;SDS011;67471;44.918;8.614;2023-05-07T03:23:46;5.93;;;3.72;;
77055;SDS011;67471;44.918;8.614;2023-05-07T03:26:50;4.40;;;3.08;;
77055;SDS011;67471;44.918;8.614;2023-05-07T03:29:53;3.85;;;2.38;;
77055;SDS011;67471;44.918;8.614;2023-05-07T03:32:57;4.72;;;2.13;;
77055;SDS011;67471;44.918;8.614;2023-05-07T03:36:01;4.35;;;2.55;;
77055;SDS011;67471;44.918;8.614;2023-05-07T03:39:05;3.17;;;2.28;;
77055;SDS011;67471;44.918;8.614;2023-05-07T03:42:15;2.80;;;2.10;;
77055;SDS011;67471;44.918;8.614;2023-05-07T03:45:19;3.30;;;2.05;;
77055;SDS011;67471;44.918;8.614;2023-05-07T03:48:29;3.55;;;2.42;;
77055;SDS011;67471;44.918;8.614;2023-05-07T03:51:34;5.60;;;3.45;;
77055;SDS011;67471;44.918;8.614;2023-05-07T03:54:41;4.45;;;3.28;;
77055;SDS011;67471;44.918;8.614;2023-05-07T03:57:45;4.93;;;3.70;;
77055;SDS011;67471;44.918;8.614;2023-05-07T04:00:49;6.07;;;3.67;;
77055;SDS011;67471;44.918;8.614;2023-05-07T04:04:00;4.90;;;3.35;;
77055;SDS011;67471;44.918;8.614;2023-05-07T04:07:05;5.50;;;3.58;;
77055;SDS011;67471;44.918;8.614;2023-05-07T04:10:15;5.10;;;3.67;;
77055;SDS011;67471;44.918;8.614;2023-05-07T04:13:21;5.45;;;3.75;;
77055;SDS011;67471;44.918;8.614;2023-05-07T04:16:25;6.05;;;4.15;;
77055;SDS011;67471;44.918;8.614;2023-05-07T04:19:29;6.53;;;3.90;;
77055;SDS011;67471;44.918;8.614;2023-05-07T04:22:33;4.75;;;3.25;;
77055;SDS011;67471;44.918;8.614;2023-05-07T04:25:37;5.68;;;3.50;;
77055;SDS011;67471;44.918;8.614;2023-05-07T04:29:09;5.20;;;3.70;;
77055;SDS011;67471;44.918;8.614;2023-05-07T04:32:13;6.40;;;4.03;;
77055;SDS011;67471;44.918;8.614;2023-05-07T04:35:18;5.55;;;3.65;;
77055;SDS011;67471;44.918;8.614;2023-05-07T04:38:22;8.80;;;4.88;;
77055;SDS011;67471;44.918;8.614;2023-05-07T04:41:28;6.85;;;3.90;;
77055;SDS011;67471;44.918;8.614;2023-05-07T04:44:32;4.50;;;3.00;;
77055;SDS011;67471;44.918;8.614;2023-05-07T04:47:36;7.18;;;3.00;;
77055;SDS011;67471;44.918;8.614;2023-05-07T04:50:40;4.80;;;3.13;;
77055;SDS011;67471;44.918;8.614;2023-05-07T04:53:45;5.05;;;2.72;;
77055;SDS011;67471;44.918;8.614;2023-05-07T04:56:49;4.28;;;2.70;;
77055;SDS011;67471;44.918;8.614;2023-05-07T04:59:53;4.85;;;2.88;;
77055;SDS011;67471;44.918;8.614;2023-05-07T05:02:57;8.02;;;3.05;;
77055;SDS011;67471;44.918;8.614;2023-05-07T05:06:00;4.57;;;2.50;;
77055;SDS011;67471;44.918;8.614;2023-05-07T05:09:08;5.25;;;2.80;;
77055;SDS011;67471;44.918;8.614;2023-05-07T05:12:12;5.47;;;2.75;;
77055;SDS011;67471;44.918;8.614;2023-05-07T05:15:16;4.63;;;2.90;;
77055;SDS011;67471;44.918;8.614;2023-05-07T05:18:20;6.28;;;2.30;;
77055;SDS011;67471;44.918;8.614;2023-05-07T05:21:24;3.92;;;2.22;;
77055;SDS011;67471;44.918;8.614;2023-05-07T05:24:31;3.65;;;2.47;;
77055;SDS011;67471;44.918;8.614;2023-05-07T05:27:35;3.67;;;2.28;;
77055;SDS011;67471;44.918;8.614;2023-05-07T05:30:39;5.03;;;2.70;;
77055;SDS011;67471;44.918;8.614;2023-05-07T05:33:44;3.65;;;2.33;;
77055;SDS011;67471;44.918;8.614;2023-05-07T05:36:48;7.10;;;4.43;;
77055;SDS011;67471;44.918;8.614;2023-05-07T05:39:53;6.05;;;2.95;;
77055;SDS011;67471;44.918;8.614;2023-05-07T05:42:58;5.72;;;3.20;;
77055;SDS011;67471;44.918;8.614;2023-05-07T05:46:03;6.18;;;3.20;;
77055;SDS011;67471;44.918;8.614;2023-05-07T05:49:08;3.70;;;2.70;;
77055;SDS011;67471;44.918;8.614;2023-05-07T05:52:12;5.35;;;2.97;;
77055;SDS011;67471;44.918;8.614;2023-05-07T05:55:16;4.40;;;2.85;;
77055;SDS011;67471;44.918;8.614;2023-05-07T05:58:20;5.55;;;3.63;;
77055;SDS011;67471;44.918;8.614;2023-05-07T06:01:30;7.57;;;3.28;;
77055;SDS011;67471;44.918;8.614;2023-05-07T06:04:37;4.20;;;3.40;;
77055;SDS011;67471;44.918;8.614;2023-05-07T06:07:41;5.97;;;3.50;;
77055;SDS011;67471;44.918;8.614;2023-05-07T06:10:45;3.85;;;2.90;;
77055;SDS011;67471;44.918;8.614;2023-05-07T06:13:49;4.55;;;3.20;;
77055;SDS011;67471;44.918;8.614;2023-05-07T06:16:53;5.75;;;3.75;;
77055;SDS011;67471;44.918;8.614;2023-05-07T06:19:57;5.95;;;3.50;;
77055;SDS011;67471;44.918;8.614;2023-05-07T06:23:01;5.00;;;3.58;;
77055;SDS011;67471;44.918;8.614;2023-05-07T06:26:06;5.38;;;3.80;;
77055;SDS011;67471;44.918;8.614;2023-05-07T06:29:15;4.78;;;3.45;;
77055;SDS011;67471;44.918;8.614;2023-05-07T06:32:20;3.92;;;3.08;;
77055;SDS011;67471;44.918;8.614;2023-05-07T06:35:23;7.78;;;3.38;;
77055;SDS011;67471;44.918;8.614;2023-05-07T06:38:27;6.22;;;3.03;;
77055;SDS011;67471;44.918;8.614;2023-05-07T06:41:31;5.95;;;3.50;;
77055;SDS011;67471;44.918;8.614;2023-05-07T06:44:42;5.93;;;3.22;;
77055;SDS011;67471;44.918;8.614;2023-05-07T06:47:49;4.47;;;3.40;;
77055;SDS011;67471;44.918;8.614;2023-05-07T06:50:52;6.70;;;3.10;;
77055;SDS011;67471;44.918;8.614;2023-05-07T06:53:58;4.70;;;3.35;;
77055;SDS011;67471;44.918;8.614;2023-05-07T06:57:02;7.45;;;3.00;;
77055;SDS011;67471;44.918;8.614;2023-05-07T07:00:07;9.48;;;3.78;;
77055;SDS011;67471;44.918;8.614;2023-05-07T07:03:21;6.55;;;3.50;;
77055;SDS011;67471;44.918;8.614;2023-05-07T07:06:25;4.70;;;3.03;;
77055;SDS011;67471;44.918;8.614;2023-05-07T07:09:29;6.50;;;3.30;;
77055;SDS011;67471;44.918;8.614;2023-05-07T07:12:33;5.20;;;3.50;;
77055;SDS011;67471;44.918;8.614;2023-05-07T07:15:37;3.60;;;2.60;;
77055;SDS011;67471;44.918;8.614;2023-05-07T07:18:41;6.15;;;2.88;;
77055;SDS011;67471;44.918;8.614;2023-05-07T07:21:44;3.15;;;2.70;;
77055;SDS011;67471;44.918;8.614;2023-05-07T07:24:49;6.35;;;2.80;;
77055;SDS011;67471;44.918;8.614;2023-05-07T07:27:55;4.80;;;2.30;;
77055;SDS011;67471;44.918;8.614;2023-05-07T07:31:01;5.03;;;2.88;;
77055;SDS011;67471;44.918;8.614;2023-05-07T07:34:07;5.20;;;2.97;;
77055;SDS011;67471;44.918;8.614;2023-05-07T07:37:11;3.90;;;2.83;;
77055;SDS011;67471;44.918;8.614;2023-05-07T07:40:16;4.85;;;2.65;;
77055;SDS011;67471;44.918;8.614;2023-05-07T07:43:21;4.68;;;2.65;;
77055;SDS011;67471;44.918;8.614;2023-05-07T07:46:24;4.22;;;2.88;;
77055;SDS011;67471;44.918;8.614;2023-05-07T07:49:30;4.15;;;2.70;;
77055;SDS011;67471;44.918;8.614;2023-05-07T07:52:37;6.00;;;2.90;;
77055;SDS011;67471;44.918;8.614;2023-05-07T07:55:42;6.82;;;2.53;;
77055;SDS011;67471;44.918;8.614;2023-05-07T07:58:49;7.18;;;3.15;;
77055;SDS011;67471;44.918;8.614;2023-05-07T08:01:53;4.38;;;3.00;;
77055;SDS011;67471;44.918;8.614;2023-05-07T08:05:01;5.20;;;3.03;;
77055;SDS011;67471;44.918;8.614;2023-05-07T08:08:05;5.65;;;2.88;;
77055;SDS011;67471;44.918;8.614;2023-05-07T08:11:10;7.90;;;3.75;;
77055;SDS011;67471;44.918;8.614;2023-05-07T08:14:14;9.52;;;4.78;;
77055;SDS011;67471;44.918;8.614;2023-05-07T08:17:22;9.45;;;2.72;;
77055;SDS011;67471;44.918;8.614;2023-05-07T08:20:27;5.65;;;3.10;;
77055;SDS011;67471;44.918;8.614;2023-05-07T08:23:32;7.57;;;3.92;;
77055;SDS011;67471;44.918;8.614;2023-05-07T08:26:37;13.68;;;7.72;;
77055;SDS011;67471;44.918;8.614;2023-05-07T08:29:43;12.60;;;4.97;;
77055;SDS011;67471;44.918;8.614;2023-05-07T08:32:51;5.95;;;3.60;;
77055;SDS011;67471;44.918;8.614;2023-05-07T08:35:55;5.20;;;2.47;;
77055;SDS011;67471;44.918;8.614;2023-05-07T08:38:59;4.68;;;2.58;;
77055;SDS011;67471;44.918;8.614;2023-05-07T08:42:03;11.65;;;5.93;;
77055;SDS011;67471;44.918;8.614;2023-05-07T08:45:10;7.05;;;4.70;;
77055;SDS011;67471;44.918;8.614;2023-05-07T08:48:17;11.15;;;4.72;;
77055;SDS011;67471;44.918;8.614;2023-05-07T08:51:26;13.35;;;6.10;;
77055;SDS011;67471;44.918;8.614;2023-05-07T08:54:30;14.13;;;5.40;;
77055;SDS011;67471;44.918;8.614;2023-05-07T08:57:35;16.73;;;5.97;;
77055;SDS011;67471;44.918;8.614;2023-05-07T09:00:40;10.85;;;4.28;;
77055;SDS011;67471;44.918;8.614;2023-05-07T09:03:45;14.13;;;5.60;;
77055;SDS011;67471;44.918;8.614;2023-05-07T09:06:50;41.20;;;19.88;;
77055;SDS011;67471;44.918;8.614;2023-05-07T09:09:56;22.55;;;11.57;;
77055;SDS011;67471;44.918;8.614;2023-05-07T09:13:02;25.00;;;12.75;;
77055;SDS011;67471;44.918;8.614;2023-05-07T09:16:09;7.40;;;3.40;;
77055;SDS011;67471;44.918;8.614;2023-05-07T09:22:22;10.50;;;4.20;;
77055;SDS011;67471;44.918;8.614;2023-05-07T09:25:39;6.75;;;3.70;;
77055;SDS011;67471;44.918;8.614;2023-05-07T09:28:50;4.53;;;2.10;;
77055;SDS011;67471;44.918;8.614;2023-05-07T09:31:55;2.92;;;1.83;;
77055;SDS011;67471;44.918;8.614;2023-05-07T09:35:00;2.55;;;1.92;;
77055;SDS011;67471;44.918;8.614;2023-05-07T09:38:05;3.45;;;2.38;;
77055;SDS011;67471;44.918;8.614;2023-05-07T09:41:12;4.90;;;2.78;;
77055;SDS011;67471;44.918;8.614;2023-05-07T09:44:27;4.25;;;2.42;;
77055;SDS011;67471;44.918;8.614;2023-05-07T09:47:31;4.22;;;2.78;;
77055;SDS011;67471;44.918;8.614;2023-05-07T09:50:49;7.40;;;2.65;;
77055;SDS011;67471;44.918;8.614;2023-05-07T09:53:57;4.38;;;2.72;;
77055;SDS011;67471;44.918;8.614;2023-05-07T09:57:07;4.13;;;2.58;;
77055;SDS011;67471;44.918;8.614;2023-05-07T10:00:12;5.18;;;3.08;;
77055;SDS011;67471;44.918;8.614;2023-05-07T10:03:25;5.32;;;3.40;;
77055;SDS011;67471;44.918;8.614;2023-05-07T10:06:37;4.10;;;2.97;;
77055;SDS011;67471;44.918;8.614;2023-05-07T10:09:42;4.63;;;3.30;;
77055;SDS011;67471;44.918;8.614;2023-05-07T10:12:55;4.65;;;3.58;;
77055;SDS011;67471;44.918;8.614;2023-05-07T10:16:07;5.40;;;2.80;;
77055;SDS011;67471;44.918;8.614;2023-05-07T10:19:17;4.43;;;3.15;;
77055;SDS011;67471;44.918;8.614;2023-05-07T10:22:23;9.95;;;3.33;;
77055;SDS011;67471;44.918;8.614;2023-05-07T10:25:31;5.85;;;4.05;;
77055;SDS011;67471;44.918;8.614;2023-05-07T10:28:41;5.82;;;3.58;;
77055;SDS011;67471;44.918;8.614;2023-05-07T10:31:54;4.82;;;3.53;;
77055;SDS011;67471;44.918;8.614;2023-05-07T10:35:04;4.55;;;3.38;;
77055;SDS011;67471;44.918;8.614;2023-05-07T10:38:13;3.35;;;2.63;;
77055;SDS011;67471;44.918;8.614;2023-05-07T10:41:19;5.32;;;4.03;;
77055;SDS011;67471;44.918;8.614;2023-05-07T10:44:28;4.40;;;3.25;;
77055;SDS011;67471;44.918;8.614;2023-05-07T10:47:35;6.05;;;4.00;;
77055;SDS011;67471;44.918;8.614;2023-05-07T10:50:40;6.05;;;3.83;;
77055;SDS011;67471;44.918;8.614;2023-05-07T10:53:45;4.55;;;3.55;;
77055;SDS011;67471;44.918;8.614;2023-05-07T10:56:54;5.05;;;3.88;;
77055;SDS011;67471;44.918;8.614;2023-05-07T11:00:03;6.10;;;3.70;;
77055;SDS011;67471;44.918;8.614;2023-05-07T11:03:31;4.35;;;3.65;;
77055;SDS011;67471;44.918;8.614;2023-05-07T11:06:42;5.63;;;3.50;;
77055;SDS011;67471;44.918;8.614;2023-05-07T11:10:06;5.07;;;3.28;;
77055;SDS011;67471;44.918;8.614;2023-05-07T11:13:43;5.55;;;3.55;;
77055;SDS011;67471;44.918;8.614;2023-05-07T11:17:01;4.65;;;3.88;;
77055;SDS011;67471;44.918;8.614;2023-05-07T11:20:06;4.07;;;3.28;;
77055;SDS011;67471;44.918;8.614;2023-05-07T11:26:55;3.97;;;3.08;;
77055;SDS011;67471;44.918;8.614;2023-05-07T11:30:01;4.03;;;3.35;;
77055;SDS011;67471;44.918;8.614;2023-05-07T11:33:06;6.20;;;3.20;;
77055;SDS011;67471;44.918;8.614;2023-05-07T11:36:10;6.97;;;4.03;;
77055;SDS011;67471;44.918;8.614;2023-05-07T11:39:26;4.85;;;3.47;;
77055;SDS011;67471;44.918;8.614;2023-05-07T11:42:34;6.38;;;3.72;;
77055;SDS011;67471;44.918;8.614;2023-05-07T11:45:40;6.18;;;3.38;;
77055;SDS011;67471;44.918;8.614;2023-05-07T11:48:44;6.43;;;3.40;;
77055;SDS011;67471;44.918;8.614;2023-05-07T11:51:48;3.85;;;2.58;;
77055;SDS011;67471;44.918;8.614;2023-05-07T11:54:52;9.25;;;3.38;;
77055;SDS011;67471;44.918;8.614;2023-05-07T11:57:58;5.45;;;3.22;;
77055;SDS011;67471;44.918;8.614;2023-05-07T12:01:02;5.43;;;3.85;;
77055;SDS011;67471;44.918;8.614;2023-05-07T12:04:06;4.45;;;3.10;;
77055;SDS011;67471;44.918;8.614;2023-05-07T12:07:14;5.43;;;3.35;;
77055;SDS011;67471;44.918;8.614;2023-05-07T12:10:18;6.90;;;3.78;;
77055;SDS011;67471;44.918;8.614;2023-05-07T12:13:24;5.50;;;4.22;;
77055;SDS011;67471;44.918;8.614;2023-05-07T12:16:28;5.55;;;4.20;;
77055;SDS011;67471;44.918;8.614;2023-05-07T12:19:37;7.68;;;4.00;;
77055;SDS011;67471;44.918;8.614;2023-05-07T12:22:42;7.00;;;4.68;;
77055;SDS011;67471;44.918;8.614;2023-05-07T12:25:46;5.30;;;4.28;;
77055;SDS011;67471;44.918;8.614;2023-05-07T12:28:51;7.45;;;4.22;;
77055;SDS011;67471;44.918;8.614;2023-05-07T12:31:54;6.50;;;4.35;;
77055;SDS011;67471;44.918;8.614;2023-05-07T12:34:58;4.40;;;3.45;;
77055;SDS011;67471;44.918;8.614;2023-05-07T12:38:02;5.40;;;3.67;;
77055;SDS011;67471;44.918;8.614;2023-05-07T12:41:09;4.80;;;4.13;;
77055;SDS011;67471;44.918;8.614;2023-05-07T12:44:14;5.75;;;4.50;;
77055;SDS011;67471;44.918;8.614;2023-05-07T12:47:18;6.28;;;3.97;;
77055;SDS011;67471;44.918;8.614;2023-05-07T12:50:22;5.95;;;4.40;;
77055;SDS011;67471;44.918;8.614;2023-05-07T12:53:26;5.97;;;4.25;;
77055;SDS011;67471;44.918;8.614;2023-05-07T12:56:31;7.78;;;4.07;;
77055;SDS011;67471;44.918;8.614;2023-05-07T12:59:36;4.70;;;4.03;;
77055;SDS011;67471;44.918;8.614;2023-05-07T13:02:41;5.68;;;3.78;;
77055;SDS011;67471;44.918;8.614;2023-05-07T13:05:48;7.25;;;4.75;;
77055;SDS011;67471;44.918;8.614;2023-05-07T13:08:52;6.45;;;4.28;;
77055;SDS011;67471;44.918;8.614;2023-05-07T13:11:57;5.72;;;4.30;;
77055;SDS011;67471;44.918;8.614;2023-05-07T13:15:04;8.32;;;4.15;;
77055;SDS011;67471;44.918;8.614;2023-05-07T13:18:08;4.38;;;3.60;;
77055;SDS011;67471;44.918;8.614;2023-05-07T13:21:14;4.57;;;3.67;;
77055;SDS011;67471;44.918;8.614;2023-05-07T13:24:18;5.75;;;3.90;;
77055;SDS011;67471;44.918;8.614;2023-05-07T13:27:22;4.85;;;4.00;;
77055;SDS011;67471;44.918;8.614;2023-05-07T13:30:25;5.78;;;3.65;;
77055;SDS011;67471;44.918;8.614;2023-05-07T13:33:29;5.18;;;3.97;;
77055;SDS011;67471;44.918;8.614;2023-05-07T13:36:33;7.03;;;4.13;;
77055;SDS011;67471;44.918;8.614;2023-05-07T13:39:40;5.60;;;3.90;;
77055;SDS011;67471;44.918;8.614;2023-05-07T13:42:44;4.70;;;3.92;;
77055;SDS011;67471;44.918;8.614;2023-05-07T13:45:48;5.53;;;3.95;;
77055;SDS011;67471;44.918;8.614;2023-05-07T13:48:51;5.45;;;3.85;;
77055;SDS011;67471;44.918;8.614;2023-05-07T13:51:55;4.53;;;3.60;;
77055;SDS011;67471;44.918;8.614;2023-05-07T13:55:00;6.03;;;4.13;;
77055;SDS011;67471;44.918;8.614;2023-05-07T13:58:03;6.63;;;3.90;;
77055;SDS011;67471;44.918;8.614;2023-05-07T14:01:07;5.78;;;3.50;;
77055;SDS011;67471;44.918;8.614;2023-05-07T14:04:11;5.45;;;3.83;;
77055;SDS011;67471;44.918;8.614;2023-05-07T14:07:15;6.47;;;4.10;;
77055;SDS011;67471;44.918;8.614;2023-05-07T14:10:18;8.45;;;3.65;;
77055;SDS011;67471;44.918;8.614;2023-05-07T14:13:22;8.93;;;3.33;;
77055;SDS011;67471;44.918;8.614;2023-05-07T14:16:26;3.38;;;2.80;;
77055;SDS011;67471;44.918;8.614;2023-05-07T14:19:30;3.72;;;2.88;;
77055;SDS011;67471;44.918;8.614;2023-05-07T14:22:34;4.22;;;2.35;;
77055;SDS011;67471;44.918;8.614;2023-05-07T14:25:38;4.40;;;2.60;;
77055;SDS011;67471;44.918;8.614;2023-05-07T14:28:42;4.15;;;1.90;;
77055;SDS011;67471;44.918;8.614;2023-05-07T14:31:49;3.33;;;2.03;;
77055;SDS011;67471;44.918;8.614;2023-05-07T14:34:53;2.38;;;1.70;;
77055;SDS011;67471;44.918;8.614;2023-05-07T14:37:56;2.38;;;1.48;;
77055;SDS011;67471;44.918;8.614;2023-05-07T14:41:01;2.85;;;1.73;;
77055;SDS011;67471;44.918;8.614;2023-05-07T14:44:10;2.33;;;1.50;;
77055;SDS011;67471;44.918;8.614;2023-05-07T14:47:14;4.70;;;1.70;;
77055;SDS011;67471;44.918;8.614;2023-05-07T14:50:19;3.03;;;1.38;;
77055;SDS011;67471;44.918;8.614;2023-05-07T14:53:23;3.53;;;1.50;;
77055;SDS011;67471;44.918;8.614;2023-05-07T14:56:28;3.67;;;1.88;;
77055;SDS011;67471;44.918;8.614;2023-05-07T14:59:32;5.72;;;1.50;;
77055;SDS011;67471;44.918;8.614;2023-05-07T15:02:36;3.97;;;2.00;;
77055;SDS011;67471;44.918;8.614;2023-05-07T15:05:40;3.50;;;1.90;;
77055;SDS011;67471;44.918;8.614;2023-05-07T15:08:44;3.83;;;1.35;;
77055;SDS011;67471;44.918;8.614;2023-05-07T15:11:49;2.97;;;1.45;;
77055;SDS011;67471;44.918;8.614;2023-05-07T15:14:52;3.38;;;1.35;;
77055;SDS011;67471;44.918;8.614;2023-05-07T15:17:56;2.60;;;1.10;;
77055;SDS011;67471;44.918;8.614;2023-05-07T15:21:00;2.58;;;1.38;;
77055;SDS011;67471;44.918;8.614;2023-05-07T15:24:05;3.25;;;1.52;;
77055;SDS011;67471;44.918;8.614;2023-05-07T15:27:09;9.38;;;2.08;;
77055;SDS011;67471;44.918;8.614;2023-05-07T15:30:14;2.40;;;1.58;;
77055;SDS011;67471;44.918;8.614;2023-05-07T15:33:18;3.38;;;1.85;;
77055;SDS011;67471;44.918;8.614;2023-05-07T15:36:22;3.33;;;1.70;;
77055;SDS011;67471;44.918;8.614;2023-05-07T15:39:25;3.40;;;1.85;;
77055;SDS011;67471;44.918;8.614;2023-05-07T15:42:29;3.60;;;1.88;;
77055;SDS011;67471;44.918;8.614;2023-05-07T15:45:38;6.70;;;1.80;;
77055;SDS011;67471;44.918;8.614;2023-05-07T15:48:45;4.32;;;1.60;;
77055;SDS011;67471;44.918;8.614;2023-05-07T15:51:49;3.53;;;1.40;;
77055;SDS011;67471;44.918;8.614;2023-05-07T15:54:54;3.35;;;1.70;;
77055;SDS011;67471;44.918;8.614;2023-05-07T15:57:59;3.45;;;1.70;;
77055;SDS011;67471;44.918;8.614;2023-05-07T16:01:02;2.45;;;1.42;;
77055;SDS011;67471;44.918;8.614;2023-05-07T16:04:07;2.10;;;1.40;;
77055;SDS011;67471;44.918;8.614;2023-05-07T16:07:11;1.85;;;1.00;;
77055;SDS011;67471;44.918;8.614;2023-05-07T16:10:15;2.42;;;1.23;;
77055;SDS011;67471;44.918;8.614;2023-05-07T16:13:19;2.10;;;1.20;;
77055;SDS011;67471;44.918;8.614;2023-05-07T16:16:22;1.80;;;1.10;;
77055;SDS011;67471;44.918;8.614;2023-05-07T16:19:28;3.28;;;1.30;;
77055;SDS011;67471;44.918;8.614;2023-05-07T16:22:33;2.40;;;1.17;;
77055;SDS011;67471;44.918;8.614;2023-05-07T16:25:37;2.72;;;1.23;;
77055;SDS011;67471;44.918;8.614;2023-05-07T16:28:41;4.05;;;1.30;;
77055;SDS011;67471;44.918;8.614;2023-05-07T16:31:45;3.15;;;1.60;;
77055;SDS011;67471;44.918;8.614;2023-05-07T16:34:49;3.10;;;1.38;;
77055;SDS011;67471;44.918;8.614;2023-05-07T16:37:53;5.53;;;1.48;;
77055;SDS011;67471;44.918;8.614;2023-05-07T16:40:57;2.05;;;1.15;;
77055;SDS011;67471;44.918;8.614;2023-05-07T16:44:01;2.33;;;1.38;;
77055;SDS011;67471;44.918;8.614;2023-05-07T16:47:06;4.93;;;1.70;;
77055;SDS011;67471;44.918;8.614;2023-05-07T16:50:09;3.40;;;1.30;;
77055;SDS011;67471;44.918;8.614;2023-05-07T16:53:14;6.53;;;1.65;;
77055;SDS011;67471;44.918;8.614;2023-05-07T16:56:18;2.92;;;1.20;;
77055;SDS011;67471;44.918;8.614;2023-05-07T16:59:21;1.98;;;1.20;;
77055;SDS011;67471;44.918;8.614;2023-05-07T17:02:25;1.65;;;1.05;;
77055;SDS011;67471;44.918;8.614;2023-05-07T17:05:30;2.90;;;1.38;;
77055;SDS011;67471;44.918;8.614;2023-05-07T17:08:34;2.97;;;1.20;;
77055;SDS011;67471;44.918;8.614;2023-05-07T17:11:38;2.53;;;1.35;;
77055;SDS011;67471;44.918;8.614;2023-05-07T17:14:41;2.55;;;1.45;;
77055;SDS011;67471;44.918;8.614;2023-05-07T17:17:45;3.17;;;1.80;;
77055;SDS011;67471;44.918;8.614;2023-05-07T17:20:49;3.30;;;1.50;;
77055;SDS011;67471;44.918;8.614;2023-05-07T17:23:54;4.03;;;1.60;;
77055;SDS011;67471;44.918;8.614;2023-05-07T17:26:58;3.75;;;1.60;;
77055;SDS011;67471;44.918;8.614;2023-05-07T17:30:01;2.50;;;1.40;;
77055;SDS011;67471;44.918;8.614;2023-05-07T17:33:06;3.10;;;1.35;;
77055;SDS011;67471;44.918;8.614;2023-05-07T17:36:10;4.55;;;1.50;;
77055;SDS011;67471;44.918;8.614;2023-05-07T17:39:14;2.47;;;1.20;;
77055;SDS011;67471;44.918;8.614;2023-05-07T17:42:18;2.33;;;1.10;;
77055;SDS011;67471;44.918;8.614;2023-05-07T17:45:22;4.38;;;1.65;;
77055;SDS011;67471;44.918;8.614;2023-05-07T17:48:26;5.85;;;1.58;;
77055;SDS011;67471;44.918;8.614;2023-05-07T17:51:30;2.80;;;1.70;;
77055;SDS011;67471;44.918;8.614;2023-05-07T17:54:40;2.60;;;1.60;;
77055;SDS011;67471;44.918;8.614;2023-05-07T17:57:47;2.50;;;1.42;;
77055;SDS011;67471;44.918;8.614;2023-05-07T18:00:57;5.47;;;2.42;;
77055;SDS011;67471;44.918;8.614;2023-05-07T18:04:01;4.05;;;1.83;;
77055;SDS011;67471;44.918;8.614;2023-05-07T18:07:05;6.68;;;1.42;;
77055;SDS011;67471;44.918;8.614;2023-05-07T18:10:09;4.38;;;2.30;;
77055;SDS011;67471;44.918;8.614;2023-05-07T18:13:16;3.03;;;1.60;;
77055;SDS011;67471;44.918;8.614;2023-05-07T18:16:20;5.95;;;2.05;;
77055;SDS011;67471;44.918;8.614;2023-05-07T18:19:30;3.17;;;1.50;;
77055;SDS011;67471;44.918;8.614;2023-05-07T18:22:36;2.22;;;1.40;;
77055;SDS011;67471;44.918;8.614;2023-05-07T18:25:42;4.05;;;2.30;;
77055;SDS011;67471;44.918;8.614;2023-05-07T18:28:46;3.38;;;1.40;;
77055;SDS011;67471;44.918;8.614;2023-05-07T18:31:53;3.65;;;1.45;;
77055;SDS011;67471;44.918;8.614;2023-05-07T18:34:57;2.95;;;1.35;;
77055;SDS011;67471;44.918;8.614;2023-05-07T18:38:04;2.60;;;1.40;;
77055;SDS011;67471;44.918;8.614;2023-05-07T18:41:08;2.90;;;1.85;;
77055;SDS011;67471;44.918;8.614;2023-05-07T18:44:12;4.55;;;2.00;;